sensor_id;sensor_type;location;lat;lon;timestamp;P1;durP1;ratioP1;P2;durP2;ratioP2
9334;SDS011;4706;41.844;26.082;2023-03-01T00:01:39;1.67;;;1.17;;
9334;SDS011;4706;41.844;26.082;2023-03-01T00:04:05;1.40;;;1.30;;
9334;SDS011;4706;41.844;26.082;2023-03-01T00:06:31;1.52;;;1.42;;
9334;SDS011;4706;41.844;26.082;2023-03-01T00:08:56;1.42;;;1.33;;
9334;SDS011;4706;41.844;26.082;2023-03-01T00:11:24;1.42;;;1.33;;
9334;SDS011;4706;41.844;26.082;2023-03-01T00:13:52;1.60;;;1.50;;
9334;SDS011;4706;41.844;26.082;2023-03-01T00:16:23;1.55;;;1.45;;
9334;SDS011;4706;41.844;26.082;2023-03-01T00:18:53;2.17;;;1.50;;
9334;SDS011;4706;41.844;26.082;2023-03-01T00:21:19;2.33;;;1.67;;
9334;SDS011;4706;41.844;26.082;2023-03-01T00:23:47;1.33;;;1.23;;
9334;SDS011;4706;41.844;26.082;2023-03-01T00:26:13;1.25;;;1.15;;
9334;SDS011;4706;41.844;26.082;2023-03-01T00:28:40;1.20;;;1.10;;
9334;SDS011;4706;41.844;26.082;2023-03-01T00:31:06;1.25;;;1.15;;
9334;SDS011;4706;41.844;26.082;2023-03-01T00:33:36;1.25;;;1.15;;
9334;SDS011;4706;41.844;26.082;2023-03-01T00:36:02;1.48;;;1.38;;
9334;SDS011;4706;41.844;26.082;2023-03-01T00:38:28;1.40;;;1.30;;
9334;SDS011;4706;41.844;26.082;2023-03-01T00:40:54;1.30;;;1.20;;
9334;SDS011;4706;41.844;26.082;2023-03-01T00:43:20;1.30;;;1.20;;
9334;SDS011;4706;41.844;26.082;2023-03-01T00:45:46;1.50;;;1.40;;
9334;SDS011;4706;41.844;26.082;2023-03-01T00:48:12;2.33;;;1.75;;
9334;SDS011;4706;41.844;26.082;2023-03-01T00:50:37;1.50;;;1.40;;
9334;SDS011;4706;41.844;26.082;2023-03-01T00:53:03;2.60;;;1.40;;
9334;SDS011;4706;41.844;26.082;2023-03-01T00:55:30;2.45;;;1.80;;
9334;SDS011;4706;41.844;26.082;2023-03-01T00:57:55;2.20;;;2.00;;
9334;SDS011;4706;41.844;26.082;2023-03-01T01:00:21;2.10;;;1.90;;
9334;SDS011;4706;41.844;26.082;2023-03-01T01:02:47;2.40;;;2.20;;
9334;SDS011;4706;41.844;26.082;2023-03-01T01:05:12;2.33;;;2.13;;
9334;SDS011;4706;41.844;26.082;2023-03-01T01:07:38;2.38;;;2.10;;
9334;SDS011;4706;41.844;26.082;2023-03-01T01:10:04;2.50;;;2.30;;
9334;SDS011;4706;41.844;26.082;2023-03-01T01:12:31;2.67;;;1.80;;
9334;SDS011;4706;41.844;26.082;2023-03-01T01:14:57;1.95;;;1.85;;
9334;SDS011;4706;41.844;26.082;2023-03-01T01:17:22;2.90;;;2.50;;
9334;SDS011;4706;41.844;26.082;2023-03-01T01:19:48;3.20;;;2.67;;
9334;SDS011;4706;41.844;26.082;2023-03-01T01:22:13;3.78;;;2.95;;
9334;SDS011;4706;41.844;26.082;2023-03-01T01:24:39;3.53;;;2.65;;
9334;SDS011;4706;41.844;26.082;2023-03-01T01:27:04;4.82;;;2.90;;
9334;SDS011;4706;41.844;26.082;2023-03-01T01:29:30;2.38;;;2.03;;
9334;SDS011;4706;41.844;26.082;2023-03-01T01:31:56;1.70;;;1.60;;
9334;SDS011;4706;41.844;26.082;2023-03-01T01:34:22;1.90;;;1.80;;
9334;SDS011;4706;41.844;26.082;2023-03-01T01:36:51;1.75;;;1.65;;
9334;SDS011;4706;41.844;26.082;2023-03-01T01:39:20;1.85;;;1.70;;
9334;SDS011;4706;41.844;26.082;2023-03-01T01:41:47;2.97;;;2.08;;
9334;SDS011;4706;41.844;26.082;2023-03-01T01:44:20;2.25;;;2.05;;
9334;SDS011;4706;41.844;26.082;2023-03-01T01:46:58;2.00;;;1.80;;
9334;SDS011;4706;41.844;26.082;2023-03-01T01:49:31;1.70;;;1.60;;
9334;SDS011;4706;41.844;26.082;2023-03-01T01:52:21;1.80;;;1.70;;
9334;SDS011;4706;41.844;26.082;2023-03-01T01:54:55;2.13;;;1.92;;
9334;SDS011;4706;41.844;26.082;2023-03-01T01:57:37;2.05;;;1.58;;
9334;SDS011;4706;41.844;26.082;2023-03-01T02:00:26;1.75;;;1.60;;
9334;SDS011;4706;41.844;26.082;2023-03-01T02:02:55;1.60;;;1.50;;
9334;SDS011;4706;41.844;26.082;2023-03-01T02:08:23;1.38;;;1.20;;
9334;SDS011;4706;41.844;26.082;2023-03-01T02:10:51;1.90;;;1.80;;
9334;SDS011;4706;41.844;26.082;2023-03-01T02:13:19;2.58;;;2.10;;
9334;SDS011;4706;41.844;26.082;2023-03-01T02:15:45;3.70;;;2.65;;
9334;SDS011;4706;41.844;26.082;2023-03-01T02:18:12;4.22;;;3.20;;
9334;SDS011;4706;41.844;26.082;2023-03-01T02:23:29;3.72;;;2.65;;
9334;SDS011;4706;41.844;26.082;2023-03-01T02:26:11;3.95;;;2.90;;
9334;SDS011;4706;41.844;26.082;2023-03-01T02:28:57;2.90;;;2.28;;
9334;SDS011;4706;41.844;26.082;2023-03-01T02:31:23;4.20;;;2.30;;
9334;SDS011;4706;41.844;26.082;2023-03-01T02:34:09;2.50;;;1.67;;
9334;SDS011;4706;41.844;26.082;2023-03-01T02:36:38;2.95;;;1.50;;
9334;SDS011;4706;41.844;26.082;2023-03-01T02:39:08;2.58;;;1.60;;
9334;SDS011;4706;41.844;26.082;2023-03-01T02:41:42;2.10;;;1.63;;
9334;SDS011;4706;41.844;26.082;2023-03-01T02:44:10;1.50;;;1.40;;
9334;SDS011;4706;41.844;26.082;2023-03-01T02:46:42;2.25;;;2.00;;
9334;SDS011;4706;41.844;26.082;2023-03-01T02:49:19;2.10;;;1.83;;
9334;SDS011;4706;41.844;26.082;2023-03-01T02:52:14;2.22;;;1.88;;
9334;SDS011;4706;41.844;26.082;2023-03-01T02:54:50;3.08;;;2.15;;
9334;SDS011;4706;41.844;26.082;2023-03-01T02:57:26;2.42;;;2.22;;
9334;SDS011;4706;41.844;26.082;2023-03-01T02:59:54;3.30;;;2.17;;
9334;SDS011;4706;41.844;26.082;2023-03-01T03:02:23;3.28;;;2.80;;
9334;SDS011;4706;41.844;26.082;2023-03-01T03:05:07;3.20;;;2.90;;
9334;SDS011;4706;41.844;26.082;2023-03-01T03:07:37;3.85;;;3.05;;
9334;SDS011;4706;41.844;26.082;2023-03-01T03:10:05;3.55;;;2.92;;
9334;SDS011;4706;41.844;26.082;2023-03-01T03:12:32;3.00;;;2.70;;
9334;SDS011;4706;41.844;26.082;2023-03-01T03:14:58;2.70;;;2.50;;
9334;SDS011;4706;41.844;26.082;2023-03-01T03:17:23;2.88;;;2.55;;
9334;SDS011;4706;41.844;26.082;2023-03-01T03:19:49;2.83;;;2.50;;
9334;SDS011;4706;41.844;26.082;2023-03-01T03:22:14;3.67;;;2.55;;
9334;SDS011;4706;41.844;26.082;2023-03-01T03:24:40;3.10;;;2.80;;
9334;SDS011;4706;41.844;26.082;2023-03-01T03:27:06;3.80;;;3.25;;
9334;SDS011;4706;41.844;26.082;2023-03-01T03:29:32;4.93;;;4.03;;
9334;SDS011;4706;41.844;26.082;2023-03-01T03:31:58;4.13;;;3.72;;
9334;SDS011;4706;41.844;26.082;2023-03-01T03:34:24;7.88;;;4.22;;
9334;SDS011;4706;41.844;26.082;2023-03-01T03:36:56;4.43;;;4.03;;
9334;SDS011;4706;41.844;26.082;2023-03-01T03:39:24;5.07;;;4.68;;
9334;SDS011;4706;41.844;26.082;2023-03-01T03:41:52;5.43;;;4.93;;
9334;SDS011;4706;41.844;26.082;2023-03-01T03:47:02;5.97;;;5.30;;
9334;SDS011;4706;41.844;26.082;2023-03-01T03:50:05;7.53;;;6.85;;
9334;SDS011;4706;41.844;26.082;2023-03-01T03:52:31;8.00;;;7.20;;
9334;SDS011;4706;41.844;26.082;2023-03-01T03:54:57;7.60;;;6.75;;
9334;SDS011;4706;41.844;26.082;2023-03-01T03:57:22;6.85;;;6.00;;
9334;SDS011;4706;41.844;26.082;2023-03-01T03:59:48;7.80;;;6.15;;
9334;SDS011;4706;41.844;26.082;2023-03-01T04:02:13;6.45;;;5.22;;
9334;SDS011;4706;41.844;26.082;2023-03-01T04:04:47;6.55;;;4.95;;
9334;SDS011;4706;41.844;26.082;2023-03-01T04:07:15;5.80;;;5.20;;
9334;SDS011;4706;41.844;26.082;2023-03-01T04:09:42;5.30;;;4.80;;
9334;SDS011;4706;41.844;26.082;2023-03-01T04:12:08;5.38;;;4.88;;
9334;SDS011;4706;41.844;26.082;2023-03-01T04:14:34;5.75;;;5.13;;
9334;SDS011;4706;41.844;26.082;2023-03-01T04:16:59;6.15;;;5.55;;
9334;SDS011;4706;41.844;26.082;2023-03-01T04:19:26;5.82;;;5.22;;
9334;SDS011;4706;41.844;26.082;2023-03-01T04:21:52;7.97;;;5.70;;
9334;SDS011;4706;41.844;26.082;2023-03-01T04:24:18;7.32;;;5.00;;
9334;SDS011;4706;41.844;26.082;2023-03-01T04:26:44;5.60;;;5.07;;
9334;SDS011;4706;41.844;26.082;2023-03-01T04:29:09;5.15;;;4.75;;
9334;SDS011;4706;41.844;26.082;2023-03-01T04:31:35;6.65;;;5.05;;
9334;SDS011;4706;41.844;26.082;2023-03-01T04:34:01;6.05;;;4.75;;
9334;SDS011;4706;41.844;26.082;2023-03-01T04:36:27;5.28;;;4.78;;
9334;SDS011;4706;41.844;26.082;2023-03-01T04:38:54;8.93;;;8.13;;
9334;SDS011;4706;41.844;26.082;2023-03-01T04:41:21;8.30;;;5.72;;
9334;SDS011;4706;41.844;26.082;2023-03-01T04:43:49;6.18;;;4.63;;
9334;SDS011;4706;41.844;26.082;2023-03-01T04:46:16;4.28;;;3.38;;
9334;SDS011;4706;41.844;26.082;2023-03-01T04:48:43;3.92;;;3.63;;
9334;SDS011;4706;41.844;26.082;2023-03-01T04:51:10;4.68;;;2.90;;
9334;SDS011;4706;41.844;26.082;2023-03-01T04:53:39;4.07;;;3.10;;
9334;SDS011;4706;41.844;26.082;2023-03-01T04:56:05;5.53;;;2.95;;
9334;SDS011;4706;41.844;26.082;2023-03-01T04:58:31;3.92;;;2.78;;
9334;SDS011;4706;41.844;26.082;2023-03-01T05:00:57;3.30;;;3.00;;
9334;SDS011;4706;41.844;26.082;2023-03-01T05:03:23;5.68;;;4.13;;
9334;SDS011;4706;41.844;26.082;2023-03-01T05:05:50;4.95;;;4.35;;
9334;SDS011;4706;41.844;26.082;2023-03-01T05:08:17;4.30;;;3.63;;
9334;SDS011;4706;41.844;26.082;2023-03-01T05:10:52;5.72;;;4.00;;
9334;SDS011;4706;41.844;26.082;2023-03-01T05:13:19;9.57;;;5.90;;
9334;SDS011;4706;41.844;26.082;2023-03-01T05:16:07;7.60;;;5.97;;
9334;SDS011;4706;41.844;26.082;2023-03-01T05:18:36;5.75;;;4.40;;
9334;SDS011;4706;41.844;26.082;2023-03-01T05:21:06;4.00;;;3.60;;
9334;SDS011;4706;41.844;26.082;2023-03-01T05:23:34;27.63;;;16.38;;
9334;SDS011;4706;41.844;26.082;2023-03-01T05:26:00;10.77;;;7.75;;
9334;SDS011;4706;41.844;26.082;2023-03-01T05:28:27;7.00;;;4.03;;
9334;SDS011;4706;41.844;26.082;2023-03-01T05:30:53;4.65;;;3.30;;
9334;SDS011;4706;41.844;26.082;2023-03-01T05:33:20;5.70;;;3.97;;
9334;SDS011;4706;41.844;26.082;2023-03-01T05:35:47;3.90;;;3.53;;
9334;SDS011;4706;41.844;26.082;2023-03-01T05:38:14;3.33;;;3.03;;
9334;SDS011;4706;41.844;26.082;2023-03-01T05:40:41;3.75;;;3.33;;
9334;SDS011;4706;41.844;26.082;2023-03-01T05:43:10;3.92;;;3.00;;
9334;SDS011;4706;41.844;26.082;2023-03-01T05:45:36;3.10;;;2.80;;
9334;SDS011;4706;41.844;26.082;2023-03-01T05:48:03;4.40;;;3.20;;
9334;SDS011;4706;41.844;26.082;2023-03-01T05:50:31;5.95;;;3.53;;
9334;SDS011;4706;41.844;26.082;2023-03-01T05:53:00;4.53;;;4.10;;
9334;SDS011;4706;41.844;26.082;2023-03-01T05:55:33;3.92;;;3.60;;
9334;SDS011;4706;41.844;26.082;2023-03-01T05:58:00;6.00;;;4.60;;
9334;SDS011;4706;41.844;26.082;2023-03-01T06:00:28;20.90;;;19.35;;
9334;SDS011;4706;41.844;26.082;2023-03-01T06:02:55;6.97;;;5.70;;
9334;SDS011;4706;41.844;26.082;2023-03-01T06:05:22;9.07;;;6.30;;
9334;SDS011;4706;41.844;26.082;2023-03-01T06:07:48;12.10;;;10.85;;
9334;SDS011;4706;41.844;26.082;2023-03-01T06:10:14;8.00;;;7.20;;
9334;SDS011;4706;41.844;26.082;2023-03-01T06:12:43;6.60;;;6.00;;
9334;SDS011;4706;41.844;26.082;2023-03-01T06:15:10;5.88;;;4.63;;
9334;SDS011;4706;41.844;26.082;2023-03-01T06:17:38;6.15;;;3.85;;
9334;SDS011;4706;41.844;26.082;2023-03-01T06:20:07;5.30;;;4.75;;
9334;SDS011;4706;41.844;26.082;2023-03-01T06:22:34;5.55;;;5.05;;
9334;SDS011;4706;41.844;26.082;2023-03-01T06:25:00;3.70;;;3.40;;
9334;SDS011;4706;41.844;26.082;2023-03-01T06:27:26;7.65;;;6.97;;
9334;SDS011;4706;41.844;26.082;2023-03-01T06:29:51;5.10;;;4.68;;
9334;SDS011;4706;41.844;26.082;2023-03-01T06:32:17;4.30;;;3.58;;
9334;SDS011;4706;41.844;26.082;2023-03-01T06:34:42;5.93;;;5.43;;
9334;SDS011;4706;41.844;26.082;2023-03-01T06:37:08;4.45;;;3.65;;
9334;SDS011;4706;41.844;26.082;2023-03-01T06:39:34;5.35;;;3.20;;
9334;SDS011;4706;41.844;26.082;2023-03-01T06:41:59;6.30;;;3.65;;
9334;SDS011;4706;41.844;26.082;2023-03-01T06:44:25;5.55;;;4.72;;
9334;SDS011;4706;41.844;26.082;2023-03-01T06:46:51;5.28;;;4.50;;
9334;SDS011;4706;41.844;26.082;2023-03-01T06:49:17;5.20;;;4.53;;
9334;SDS011;4706;41.844;26.082;2023-03-01T06:51:43;5.32;;;4.72;;
9334;SDS011;4706;41.844;26.082;2023-03-01T06:54:09;13.20;;;9.82;;
9334;SDS011;4706;41.844;26.082;2023-03-01T06:56:34;4.50;;;3.25;;
9334;SDS011;4706;41.844;26.082;2023-03-01T06:59:00;5.95;;;3.65;;
9334;SDS011;4706;41.844;26.082;2023-03-01T07:01:26;21.77;;;16.83;;
9334;SDS011;4706;41.844;26.082;2023-03-01T07:03:51;14.40;;;11.52;;
9334;SDS011;4706;41.844;26.082;2023-03-01T07:06:17;12.70;;;7.65;;
9334;SDS011;4706;41.844;26.082;2023-03-01T07:08:42;6.93;;;4.22;;
9334;SDS011;4706;41.844;26.082;2023-03-01T07:11:08;6.90;;;5.60;;
9334;SDS011;4706;41.844;26.082;2023-03-01T07:13:34;4.60;;;4.20;;
9334;SDS011;4706;41.844;26.082;2023-03-01T07:15:59;5.40;;;3.67;;
9334;SDS011;4706;41.844;26.082;2023-03-01T07:18:25;5.53;;;3.30;;
9334;SDS011;4706;41.844;26.082;2023-03-01T07:20:51;6.82;;;3.90;;
9334;SDS011;4706;41.844;26.082;2023-03-01T07:23:16;4.32;;;3.53;;
9334;SDS011;4706;41.844;26.082;2023-03-01T07:25:42;18.00;;;16.02;;
9334;SDS011;4706;41.844;26.082;2023-03-01T07:28:08;15.45;;;12.45;;
9334;SDS011;4706;41.844;26.082;2023-03-01T07:30:33;5.47;;;4.15;;
9334;SDS011;4706;41.844;26.082;2023-03-01T07:32:59;3.70;;;3.40;;
9334;SDS011;4706;41.844;26.082;2023-03-01T07:35:25;4.20;;;3.80;;
9334;SDS011;4706;41.844;26.082;2023-03-01T07:37:51;7.10;;;3.55;;
9334;SDS011;4706;41.844;26.082;2023-03-01T07:40:17;5.47;;;4.00;;
9334;SDS011;4706;41.844;26.082;2023-03-01T07:42:43;22.42;;;13.60;;
9334;SDS011;4706;41.844;26.082;2023-03-01T07:45:09;6.82;;;6.10;;
9334;SDS011;4706;41.844;26.082;2023-03-01T07:47:35;6.05;;;4.70;;
9334;SDS011;4706;41.844;26.082;2023-03-01T07:50:01;8.65;;;4.38;;
9334;SDS011;4706;41.844;26.082;2023-03-01T07:52:27;9.70;;;5.68;;
9334;SDS011;4706;41.844;26.082;2023-03-01T07:54:53;9.48;;;5.15;;
9334;SDS011;4706;41.844;26.082;2023-03-01T07:57:19;11.63;;;9.82;;
9334;SDS011;4706;41.844;26.082;2023-03-01T07:59:44;5.68;;;4.88;;
9334;SDS011;4706;41.844;26.082;2023-03-01T08:02:10;15.13;;;10.65;;
9334;SDS011;4706;41.844;26.082;2023-03-01T08:04:36;9.63;;;7.88;;
9334;SDS011;4706;41.844;26.082;2023-03-01T08:07:04;6.82;;;5.60;;
9334;SDS011;4706;41.844;26.082;2023-03-01T08:09:30;8.13;;;6.80;;
9334;SDS011;4706;41.844;26.082;2023-03-01T08:11:56;12.32;;;6.55;;
9334;SDS011;4706;41.844;26.082;2023-03-01T08:14:24;4.35;;;3.40;;
9334;SDS011;4706;41.844;26.082;2023-03-01T08:16:50;5.53;;;5.03;;
9334;SDS011;4706;41.844;26.082;2023-03-01T08:19:16;5.03;;;4.53;;
9334;SDS011;4706;41.844;26.082;2023-03-01T08:21:41;12.95;;;8.32;;
9334;SDS011;4706;41.844;26.082;2023-03-01T08:24:07;10.80;;;7.22;;
9334;SDS011;4706;41.844;26.082;2023-03-01T08:26:33;10.90;;;6.68;;
9334;SDS011;4706;41.844;26.082;2023-03-01T08:28:59;6.20;;;4.72;;
9334;SDS011;4706;41.844;26.082;2023-03-01T08:31:26;7.70;;;4.00;;
9334;SDS011;4706;41.844;26.082;2023-03-01T08:33:54;6.20;;;3.28;;
9334;SDS011;4706;41.844;26.082;2023-03-01T08:36:26;10.10;;;3.83;;
9334;SDS011;4706;41.844;26.082;2023-03-01T08:38:55;4.18;;;3.10;;
9334;SDS011;4706;41.844;26.082;2023-03-01T08:41:21;7.13;;;4.65;;
9334;SDS011;4706;41.844;26.082;2023-03-01T08:43:47;9.48;;;6.47;;
9334;SDS011;4706;41.844;26.082;2023-03-01T08:46:13;10.65;;;4.90;;
9334;SDS011;4706;41.844;26.082;2023-03-01T08:48:39;5.70;;;5.10;;
9334;SDS011;4706;41.844;26.082;2023-03-01T08:51:14;3.80;;;3.50;;
9334;SDS011;4706;41.844;26.082;2023-03-01T08:53:41;6.28;;;3.58;;
9334;SDS011;4706;41.844;26.082;2023-03-01T08:56:07;7.32;;;5.90;;
9334;SDS011;4706;41.844;26.082;2023-03-01T08:58:33;7.97;;;4.30;;
9334;SDS011;4706;41.844;26.082;2023-03-01T09:00:59;6.40;;;3.30;;
9334;SDS011;4706;41.844;26.082;2023-03-01T09:03:25;6.93;;;5.75;;
9334;SDS011;4706;41.844;26.082;2023-03-01T09:05:51;5.95;;;4.50;;
9334;SDS011;4706;41.844;26.082;2023-03-01T09:08:18;5.38;;;4.88;;
9334;SDS011;4706;41.844;26.082;2023-03-01T09:10:44;8.05;;;4.95;;
9334;SDS011;4706;41.844;26.082;2023-03-01T09:13:10;4.18;;;3.78;;
9334;SDS011;4706;41.844;26.082;2023-03-01T09:15:38;6.97;;;4.00;;
9334;SDS011;4706;41.844;26.082;2023-03-01T09:18:04;3.83;;;3.40;;
9334;SDS011;4706;41.844;26.082;2023-03-01T09:20:30;6.22;;;3.30;;
9334;SDS011;4706;41.844;26.082;2023-03-01T09:22:57;7.82;;;4.22;;
9334;SDS011;4706;41.844;26.082;2023-03-01T09:25:23;3.80;;;2.92;;
9334;SDS011;4706;41.844;26.082;2023-03-01T09:27:52;7.43;;;4.22;;
9334;SDS011;4706;41.844;26.082;2023-03-01T09:30:18;4.82;;;4.30;;
9334;SDS011;4706;41.844;26.082;2023-03-01T09:32:44;6.28;;;4.78;;
9334;SDS011;4706;41.844;26.082;2023-03-01T09:35:10;6.30;;;3.95;;
9334;SDS011;4706;41.844;26.082;2023-03-01T09:37:36;11.30;;;5.90;;
9334;SDS011;4706;41.844;26.082;2023-03-01T09:40:04;5.93;;;3.75;;
9334;SDS011;4706;41.844;26.082;2023-03-01T09:42:34;3.58;;;3.05;;
9334;SDS011;4706;41.844;26.082;2023-03-01T09:47:32;5.47;;;3.67;;
9334;SDS011;4706;41.844;26.082;2023-03-01T09:55:34;12.55;;;6.05;;
9334;SDS011;4706;41.844;26.082;2023-03-01T10:04:00;6.25;;;3.63;;
9334;SDS011;4706;41.844;26.082;2023-03-01T10:06:51;10.13;;;3.47;;
9334;SDS011;4706;41.844;26.082;2023-03-01T10:09:34;3.47;;;2.47;;
9334;SDS011;4706;41.844;26.082;2023-03-01T10:12:02;5.00;;;2.35;;
9334;SDS011;4706;41.844;26.082;2023-03-01T10:14:35;3.53;;;2.67;;
9334;SDS011;4706;41.844;26.082;2023-03-01T10:17:07;4.03;;;2.60;;
9334;SDS011;4706;41.844;26.082;2023-03-01T10:19:44;8.73;;;3.17;;
9334;SDS011;4706;41.844;26.082;2023-03-01T10:22:13;6.95;;;3.20;;
9334;SDS011;4706;41.844;26.082;2023-03-01T10:24:42;4.15;;;3.38;;
9334;SDS011;4706;41.844;26.082;2023-03-01T10:30:32;6.32;;;4.05;;
9334;SDS011;4706;41.844;26.082;2023-03-01T10:33:05;6.47;;;4.35;;
9334;SDS011;4706;41.844;26.082;2023-03-01T10:35:42;7.15;;;4.78;;
9334;SDS011;4706;41.844;26.082;2023-03-01T10:38:11;7.38;;;4.28;;
9334;SDS011;4706;41.844;26.082;2023-03-01T10:43:18;6.22;;;4.13;;
9334;SDS011;4706;41.844;26.082;2023-03-01T10:45:44;7.85;;;4.00;;
9334;SDS011;4706;41.844;26.082;2023-03-01T10:50:49;6.28;;;4.65;;
9334;SDS011;4706;41.844;26.082;2023-03-01T10:53:32;13.20;;;8.18;;
9334;SDS011;4706;41.844;26.082;2023-03-01T10:56:02;7.10;;;4.82;;
9334;SDS011;4706;41.844;26.082;2023-03-01T10:58:37;13.48;;;6.38;;
9334;SDS011;4706;41.844;26.082;2023-03-01T11:01:05;10.88;;;4.78;;
9334;SDS011;4706;41.844;26.082;2023-03-01T11:06:32;4.18;;;3.38;;
9334;SDS011;4706;41.844;26.082;2023-03-01T11:09:19;8.80;;;3.97;;
9334;SDS011;4706;41.844;26.082;2023-03-01T11:11:46;5.90;;;3.80;;
9334;SDS011;4706;41.844;26.082;2023-03-01T11:17:01;11.02;;;6.45;;
9334;SDS011;4706;41.844;26.082;2023-03-01T11:19:28;5.75;;;5.07;;
9334;SDS011;4706;41.844;26.082;2023-03-01T11:24:25;8.52;;;5.70;;
9334;SDS011;4706;41.844;26.082;2023-03-01T11:26:57;7.00;;;6.35;;
9334;SDS011;4706;41.844;26.082;2023-03-01T11:29:37;13.57;;;7.65;;
9334;SDS011;4706;41.844;26.082;2023-03-01T11:32:07;10.50;;;9.50;;
9334;SDS011;4706;41.844;26.082;2023-03-01T11:34:40;8.68;;;7.22;;
9334;SDS011;4706;41.844;26.082;2023-03-01T11:37:28;7.35;;;6.65;;
9334;SDS011;4706;41.844;26.082;2023-03-01T11:40:02;10.80;;;6.72;;
9334;SDS011;4706;41.844;26.082;2023-03-01T11:42:51;8.07;;;5.80;;
9334;SDS011;4706;41.844;26.082;2023-03-01T11:51:17;6.20;;;4.40;;
9334;SDS011;4706;41.844;26.082;2023-03-01T11:56:40;7.60;;;5.30;;
9334;SDS011;4706;41.844;26.082;2023-03-01T12:02:15;7.03;;;3.50;;
9334;SDS011;4706;41.844;26.082;2023-03-01T12:05:05;7.53;;;3.72;;
9334;SDS011;4706;41.844;26.082;2023-03-01T12:10:27;4.95;;;3.90;;
9334;SDS011;4706;41.844;26.082;2023-03-01T12:15:45;6.05;;;5.00;;
9334;SDS011;4706;41.844;26.082;2023-03-01T12:40:25;10.48;;;4.88;;
9334;SDS011;4706;41.844;26.082;2023-03-01T12:43:28;7.78;;;4.72;;
9334;SDS011;4706;41.844;26.082;2023-03-01T12:51:50;8.48;;;5.18;;
9334;SDS011;4706;41.844;26.082;2023-03-01T12:54:26;5.53;;;4.22;;
9334;SDS011;4706;41.844;26.082;2023-03-01T12:56:55;10.25;;;7.85;;
9334;SDS011;4706;41.844;26.082;2023-03-01T12:59:44;9.60;;;6.30;;
9334;SDS011;4706;41.844;26.082;2023-03-01T13:02:26;7.85;;;5.95;;
9334;SDS011;4706;41.844;26.082;2023-03-01T13:07:47;7.20;;;5.95;;
9334;SDS011;4706;41.844;26.082;2023-03-01T13:17:49;8.60;;;7.07;;
9334;SDS011;4706;41.844;26.082;2023-03-01T13:20:21;10.95;;;6.55;;
9334;SDS011;4706;41.844;26.082;2023-03-01T13:31:10;10.15;;;8.77;;
9334;SDS011;4706;41.844;26.082;2023-03-01T13:34:00;13.00;;;6.47;;
9334;SDS011;4706;41.844;26.082;2023-03-01T13:39:03;11.07;;;9.90;;
9334;SDS011;4706;41.844;26.082;2023-03-01T13:55:00;10.30;;;8.77;;
9334;SDS011;4706;41.844;26.082;2023-03-01T13:57:36;10.68;;;7.22;;
9334;SDS011;4706;41.844;26.082;2023-03-01T14:00:04;19.42;;;14.45;;
9334;SDS011;4706;41.844;26.082;2023-03-01T14:02:31;5.45;;;4.93;;
9334;SDS011;4706;41.844;26.082;2023-03-01T14:04:57;7.25;;;6.45;;
9334;SDS011;4706;41.844;26.082;2023-03-01T14:07:24;5.90;;;5.15;;
9334;SDS011;4706;41.844;26.082;2023-03-01T14:09:58;9.05;;;8.15;;
9334;SDS011;4706;41.844;26.082;2023-03-01T14:15:15;8.07;;;7.28;;
9334;SDS011;4706;41.844;26.082;2023-03-01T14:20:20;6.47;;;5.82;;
9334;SDS011;4706;41.844;26.082;2023-03-01T14:22:48;8.70;;;7.82;;
9334;SDS011;4706;41.844;26.082;2023-03-01T14:25:21;7.18;;;6.47;;
9334;SDS011;4706;41.844;26.082;2023-03-01T14:27:51;8.88;;;6.28;;
9334;SDS011;4706;41.844;26.082;2023-03-01T14:33:03;7.15;;;6.22;;
9334;SDS011;4706;41.844;26.082;2023-03-01T14:35:33;7.90;;;6.05;;
9334;SDS011;4706;41.844;26.082;2023-03-01T14:38:00;6.68;;;5.95;;
9334;SDS011;4706;41.844;26.082;2023-03-01T14:40:27;8.00;;;5.78;;
9334;SDS011;4706;41.844;26.082;2023-03-01T14:43:04;8.43;;;7.63;;
9334;SDS011;4706;41.844;26.082;2023-03-01T14:45:36;6.63;;;5.88;;
9334;SDS011;4706;41.844;26.082;2023-03-01T14:48:02;7.07;;;6.38;;
9334;SDS011;4706;41.844;26.082;2023-03-01T14:50:31;9.30;;;8.25;;
9334;SDS011;4706;41.844;26.082;2023-03-01T14:53:00;8.52;;;7.70;;
9334;SDS011;4706;41.844;26.082;2023-03-01T14:58:18;8.82;;;7.85;;
9334;SDS011;4706;41.844;26.082;2023-03-01T15:00:55;11.45;;;9.63;;
9334;SDS011;4706;41.844;26.082;2023-03-01T15:03:33;17.85;;;16.05;;
9334;SDS011;4706;41.844;26.082;2023-03-01T15:06:05;12.43;;;11.23;;
9334;SDS011;4706;41.844;26.082;2023-03-01T15:08:32;12.05;;;10.88;;
9334;SDS011;4706;41.844;26.082;2023-03-01T15:13:31;11.77;;;9.57;;
9334;SDS011;4706;41.844;26.082;2023-03-01T15:16:02;9.13;;;7.95;;
9334;SDS011;4706;41.844;26.082;2023-03-01T15:18:34;7.82;;;7.13;;
9334;SDS011;4706;41.844;26.082;2023-03-01T15:21:08;8.25;;;6.10;;
9334;SDS011;4706;41.844;26.082;2023-03-01T15:23:40;6.68;;;5.88;;
9334;SDS011;4706;41.844;26.082;2023-03-01T15:26:05;7.30;;;6.55;;
9334;SDS011;4706;41.844;26.082;2023-03-01T15:28:36;10.65;;;9.55;;
9334;SDS011;4706;41.844;26.082;2023-03-01T15:33:41;33.97;;;30.27;;
9334;SDS011;4706;41.844;26.082;2023-03-01T15:38:59;14.27;;;12.05;;
9334;SDS011;4706;41.844;26.082;2023-03-01T15:41:30;12.13;;;10.88;;
9334;SDS011;4706;41.844;26.082;2023-03-01T15:44:15;12.35;;;11.05;;
9334;SDS011;4706;41.844;26.082;2023-03-01T15:46:44;16.58;;;14.88;;
9334;SDS011;4706;41.844;26.082;2023-03-01T15:49:24;14.18;;;12.75;;
9334;SDS011;4706;41.844;26.082;2023-03-01T15:51:51;12.77;;;10.93;;
9334;SDS011;4706;41.844;26.082;2023-03-01T15:54:20;11.63;;;10.25;;
9334;SDS011;4706;41.844;26.082;2023-03-01T15:56:48;15.98;;;14.48;;
9334;SDS011;4706;41.844;26.082;2023-03-01T15:59:14;16.33;;;14.65;;
9334;SDS011;4706;41.844;26.082;2023-03-01T16:01:43;17.02;;;15.32;;
9334;SDS011;4706;41.844;26.082;2023-03-01T16:04:13;19.58;;;17.58;;
9334;SDS011;4706;41.844;26.082;2023-03-01T16:06:46;33.75;;;30.13;;
9334;SDS011;4706;41.844;26.082;2023-03-01T16:09:25;20.50;;;18.30;;
9334;SDS011;4706;41.844;26.082;2023-03-01T16:11:51;32.28;;;28.95;;
9334;SDS011;4706;41.844;26.082;2023-03-01T16:14:17;20.90;;;18.90;;
9334;SDS011;4706;41.844;26.082;2023-03-01T16:16:44;19.88;;;17.23;;
9334;SDS011;4706;41.844;26.082;2023-03-01T16:19:10;16.85;;;14.65;;
9334;SDS011;4706;41.844;26.082;2023-03-01T16:21:36;29.00;;;19.92;;
9334;SDS011;4706;41.844;26.082;2023-03-01T16:24:02;20.13;;;15.85;;
9334;SDS011;4706;41.844;26.082;2023-03-01T16:26:28;13.40;;;12.00;;
9334;SDS011;4706;41.844;26.082;2023-03-01T16:28:54;11.98;;;10.77;;
9334;SDS011;4706;41.844;26.082;2023-03-01T16:31:21;11.95;;;10.75;;
9334;SDS011;4706;41.844;26.082;2023-03-01T16:33:47;16.60;;;14.82;;
9334;SDS011;4706;41.844;26.082;2023-03-01T16:36:16;16.50;;;14.63;;
9334;SDS011;4706;41.844;26.082;2023-03-01T16:38:43;17.88;;;14.77;;
9334;SDS011;4706;41.844;26.082;2023-03-01T16:41:13;18.80;;;15.32;;
9334;SDS011;4706;41.844;26.082;2023-03-01T16:43:40;14.27;;;12.77;;
9334;SDS011;4706;41.844;26.082;2023-03-01T16:46:10;11.48;;;10.30;;
9334;SDS011;4706;41.844;26.082;2023-03-01T16:48:41;14.43;;;11.35;;
9334;SDS011;4706;41.844;26.082;2023-03-01T16:51:06;12.70;;;11.30;;
9334;SDS011;4706;41.844;26.082;2023-03-01T16:53:33;16.67;;;14.70;;
9334;SDS011;4706;41.844;26.082;2023-03-01T16:56:02;13.07;;;11.73;;
9334;SDS011;4706;41.844;26.082;2023-03-01T16:58:28;12.85;;;11.27;;
9334;SDS011;4706;41.844;26.082;2023-03-01T17:00:55;16.10;;;14.35;;
9334;SDS011;4706;41.844;26.082;2023-03-01T17:03:24;19.08;;;13.68;;
9334;SDS011;4706;41.844;26.082;2023-03-01T17:05:51;18.27;;;16.13;;
9334;SDS011;4706;41.844;26.082;2023-03-01T17:08:17;17.35;;;13.75;;
9334;SDS011;4706;41.844;26.082;2023-03-01T17:10:42;14.18;;;12.32;;
9334;SDS011;4706;41.844;26.082;2023-03-01T17:13:09;16.02;;;13.98;;
9334;SDS011;4706;41.844;26.082;2023-03-01T17:15:39;18.45;;;14.77;;
9334;SDS011;4706;41.844;26.082;2023-03-01T17:18:05;16.45;;;14.73;;
9334;SDS011;4706;41.844;26.082;2023-03-01T17:20:31;17.27;;;14.50;;
9334;SDS011;4706;41.844;26.082;2023-03-01T17:22:57;16.85;;;15.15;;
9334;SDS011;4706;41.844;26.082;2023-03-01T17:25:22;14.10;;;12.68;;